Time;durP1;ratioP1;P1;durP2;ratioP2;P2;SDS_P1;SDS_P2;PMS_P1;PMS_P2;Temp;Humidity;BMP_temperature;BMP_pressure;BME280_temperature;BME280_humidity;BME280_pressure;Samples;Min_cycle;Max_cycle;Signal;HPM_P1;HPM_P2
2022/06/28 00:00:08;;;;;;;;;;;20.70;64.90;;;;;;6172836;23;19912;-94
2022/06/28 00:02:34;;;;;;;;;;;20.80;65.00;;;;;;6172144;23;19931;-94
2022/06/28 00:04:59;;;;;;;;;;;20.80;65.00;;;;;;6147335;23;19908;-93
2022/06/28 00:07:25;;;;;;;;;;;20.90;64.90;;;;;;6198519;23;20285;-92
2022/06/28 00:09:50;;;;;;;;;;;20.90;64.90;;;;;;6172430;23;19939;-93
2022/06/28 00:12:15;;;;;;;;;;;21.00;64.80;;;;;;6173360;23;19916;-94
2022/06/28 00:17:26;;;;;;;;;;;21.00;64.70;;;;;;6198706;23;19915;-93
2022/06/28 00:19:52;;;;;;;;;;;21.00;64.70;;;;;;6171996;23;19958;-93
2022/06/28 00:22:18;;;;;;;;;;;21.10;64.60;;;;;;6198101;23;19912;-94
2022/06/28 00:24:44;;;;;;;;;;;21.10;64.50;;;;;;6195485;23;19912;-95
2022/06/28 00:27:09;;;;;;;;;;;21.00;64.30;;;;;;6167790;23;19908;-95
2022/06/28 00:29:35;;;;;;;;;;;21.00;64.10;;;;;;6197398;23;19912;-94
2022/06/28 00:32:00;;;;;;;;;;;20.80;63.90;;;;;;6173145;23;19909;-93
2022/06/28 00:34:27;;;;;;;;;;;20.80;63.70;;;;;;6196012;23;19920;-93
2022/06/28 00:36:53;;;;;;;;;;;20.70;63.50;;;;;;6171798;23;19915;-94
2022/06/28 00:39:19;;;;;;;;;;;20.60;63.10;;;;;;6171004;23;19908;-94
2022/06/28 00:41:44;;;;;;;;;;;20.50;62.80;;;;;;6147072;23;19916;-95
2022/06/28 00:44:13;;;;;;;;;;;20.40;62.60;;;;;;6173479;23;19908;-95
2022/06/28 00:46:39;;;;;;;;;;;20.30;62.70;;;;;;6151806;23;19912;-94
2022/06/28 00:49:05;;;;;;;;;;;20.20;62.50;;;;;;6172429;23;19918;-94
2022/06/28 00:51:31;;;;;;;;;;;20.10;62.50;;;;;;6198469;23;19935;-94
2022/06/28 00:53:57;;;;;;;;;;;20.00;62.50;;;;;;6171232;23;20336;-95
2022/06/28 00:56:23;;;;;;;;;;;19.90;62.60;;;;;;6173487;23;19920;-94
2022/06/28 00:58:49;;;;;;;;;;;19.80;62.70;;;;;;6172766;23;20651;-93
2022/06/28 01:01:14;;;;;;;;;;;19.80;62.60;;;;;;6170724;23;19916;-94
2022/06/28 01:03:41;;;;;;;;;;;19.70;62.60;;;;;;6170458;23;19915;-94
2022/06/28 01:06:06;;;;;;;;;;;19.60;62.60;;;;;;6170791;23;20284;-95
2022/06/28 01:08:31;;;;;;;;;;;19.50;62.80;;;;;;6172457;23;19908;-93
2022/06/28 01:10:57;;;;;;;;;;;19.50;63.00;;;;;;6173022;23;19908;-94
2022/06/28 01:13:23;;;;;;;;;;;19.50;63.10;;;;;;6145098;23;19908;-94
2022/06/28 01:15:48;;;;;;;;;;;19.40;63.20;;;;;;6165315;23;19924;-95
2022/06/28 01:18:14;;;;;;;;;;;19.40;63.30;;;;;;6167635;23;19904;-93
2022/06/28 01:20:41;;;;;;;;;;;19.30;63.30;;;;;;6166325;23;19909;-95
2022/06/28 01:23:07;;;;;;;;;;;19.30;63.20;;;;;;6166479;23;19911;-94
2022/06/28 01:25:32;;;;;;;;;;;19.20;63.10;;;;;;6191961;23;20333;-94
2022/06/28 01:27:58;;;;;;;;;;;19.20;63.40;;;;;;6191314;23;19963;-94
2022/06/28 01:30:25;;;;;;;;;;;19.10;63.40;;;;;;6167581;23;19916;-95
2022/06/28 01:32:52;;;;;;;;;;;19.10;63.40;;;;;;6168327;23;19909;-94
2022/06/28 01:35:18;;;;;;;;;;;19.00;63.60;;;;;;6191923;23;19916;-95
2022/06/28 01:37:43;;;;;;;;;;;19.10;63.60;;;;;;6193322;23;19908;-95
2022/06/28 01:40:09;;;;;;;;;;;19.10;63.30;;;;;;6192852;23;19958;-94
2022/06/28 01:42:35;;;;;;;;;;;19.00;62.90;;;;;;6166014;23;19912;-95
2022/06/28 01:45:00;;;;;;;;;;;19.00;62.60;;;;;;6166562;23;20301;-94
2022/06/28 01:47:29;;;;;;;;;;;18.90;62.40;;;;;;6166194;23;19920;-95
2022/06/28 01:49:54;;;;;;;;;;;18.80;62.50;;;;;;6165703;23;20470;-94
2022/06/28 01:52:21;;;;;;;;;;;18.80;62.60;;;;;;6164984;23;19912;-94
2022/06/28 01:54:47;;;;;;;;;;;18.70;62.70;;;;;;6165069;23;19960;-94
2022/06/28 01:57:13;;;;;;;;;;;18.60;62.90;;;;;;6165812;23;19918;-94
2022/06/28 01:59:39;;;;;;;;;;;18.60;63.10;;;;;;6165857;23;19904;-95
2022/06/28 02:02:05;;;;;;;;;;;18.60;63.00;;;;;;6165280;23;19916;-94
2022/06/28 02:04:31;;;;;;;;;;;18.50;62.90;;;;;;6165370;23;19905;-94
2022/06/28 02:06:57;;;;;;;;;;;18.50;62.70;;;;;;6165880;23;19912;-94
2022/06/28 02:09:23;;;;;;;;;;;18.40;62.70;;;;;;6192949;23;19911;-94
2022/06/28 02:11:48;;;;;;;;;;;18.30;62.80;;;;;;6190343;23;19908;-93
2022/06/28 02:14:14;;;;;;;;;;;18.30;62.80;;;;;;6192041;23;20344;-93
2022/06/28 02:16:40;;;;;;;;;;;18.30;62.90;;;;;;6192174;23;19908;-95
2022/06/28 02:19:06;;;;;;;;;;;18.20;62.90;;;;;;6165520;23;19909;-94
2022/06/28 02:21:36;;;;;;;;;;;18.20;62.90;;;;;;6165123;23;19912;-93
2022/06/28 02:24:02;;;;;;;;;;;18.10;62.80;;;;;;6165907;23;20078;-94
2022/06/28 02:26:27;;;;;;;;;;;18.10;62.70;;;;;;6165574;23;19916;-93
2022/06/28 02:28:53;;;;;;;;;;;18.00;62.30;;;;;;6164447;23;20356;-95
2022/06/28 02:31:18;;;;;;;;;;;17.90;62.00;;;;;;6165798;23;19915;-95
2022/06/28 02:33:47;;;;;;;;;;;17.80;62.00;;;;;;6165279;23;19916;-93
2022/06/28 02:41:40;;;;;;;;;;;17.70;62.20;;;;;;6192211;23;19961;-93
2022/06/28 02:44:06;;;;;;;;;;;17.60;62.20;;;;;;6166048;23;19912;-93
2022/06/28 02:46:31;;;;;;;;;;;17.60;62.40;;;;;;6165593;23;19912;-95
2022/06/28 02:48:57;;;;;;;;;;;17.50;62.60;;;;;;6190982;23;20352;-94
2022/06/28 02:51:23;;;;;;;;;;;17.50;62.80;;;;;;6190570;23;19969;-93
2022/06/28 02:53:48;;;;;;;;;;;17.60;63.00;;;;;;6162835;23;19991;-93
2022/06/28 02:56:14;;;;;;;;;;;17.60;63.00;;;;;;6164233;23;19962;-93
2022/06/28 02:58:39;;;;;;;;;;;17.50;63.00;;;;;;6139920;23;19991;-93
2022/06/28 03:01:05;;;;;;;;;;;17.50;63.00;;;;;;6163796;23;20233;-93
2022/06/28 03:03:30;;;;;;;;;;;17.50;63.00;;;;;;6164806;23;19948;-94
2022/06/28 03:05:56;;;;;;;;;;;17.50;63.00;;;;;;6164346;23;19909;-93
2022/06/28 03:08:21;;;;;;;;;;;17.50;62.90;;;;;;6164846;23;19916;-93
2022/06/28 03:10:47;;;;;;;;;;;17.40;62.80;;;;;;6190181;23;20348;-94
2022/06/28 03:13:12;;;;;;;;;;;17.50;62.70;;;;;;6163609;23;19984;-94
2022/06/28 03:15:38;;;;;;;;;;;17.40;62.70;;;;;;6190621;23;20250;-93
2022/06/28 03:18:03;;;;;;;;;;;17.40;62.70;;;;;;6190891;23;19921;-93
2022/06/28 03:20:29;;;;;;;;;;;17.40;62.70;;;;;;6165277;23;19888;-94
2022/06/28 03:22:55;;;;;;;;;;;17.40;62.80;;;;;;6191357;23;19932;-94
2022/06/28 03:25:20;;;;;;;;;;;17.40;62.80;;;;;;6163748;23;19911;-93
2022/06/28 03:27:46;;;;;;;;;;;17.40;62.80;;;;;;6190897;23;19912;-92
2022/06/28 03:30:12;;;;;;;;;;;17.30;62.80;;;;;;6163562;23;19905;-94
2022/06/28 03:32:38;;;;;;;;;;;17.40;62.90;;;;;;6163664;23;20289;-93
2022/06/28 03:35:03;;;;;;;;;;;17.40;63.20;;;;;;6164768;23;19924;-93
2022/06/28 03:37:29;;;;;;;;;;;17.50;63.40;;;;;;6191146;23;20458;-94
2022/06/28 03:39:55;;;;;;;;;;;17.50;63.70;;;;;;6188888;23;19916;-94
2022/06/28 03:42:20;;;;;;;;;;;17.70;64.00;;;;;;6163773;23;19934;-93
2022/06/28 03:44:46;;;;;;;;;;;17.80;64.30;;;;;;6164253;23;20245;-94
2022/06/28 03:47:11;;;;;;;;;;;18.00;64.60;;;;;;6140304;23;20297;-93
2022/06/28 03:49:37;;;;;;;;;;;18.10;64.90;;;;;;6164630;23;19912;-93
2022/06/28 03:52:03;;;;;;;;;;;18.30;65.10;;;;;;6167989;23;19916;-94
2022/06/28 03:54:28;;;;;;;;;;;18.50;65.40;;;;;;6167184;23;19968;-94
2022/06/28 03:56:54;;;;;;;;;;;18.70;65.60;;;;;;6193969;23;19913;-95
2022/06/28 03:59:19;;;;;;;;;;;19.00;65.80;;;;;;6166657;23;20353;-94
2022/06/28 04:01:45;;;;;;;;;;;19.20;66.00;;;;;;6166866;23;19916;-94
2022/06/28 04:04:10;;;;;;;;;;;19.40;66.20;;;;;;6141611;23;19913;-95
2022/06/28 04:06:36;;;;;;;;;;;19.70;66.30;;;;;;6166372;23;19908;-95
2022/06/28 04:09:01;;;;;;;;;;;19.90;66.50;;;;;;6165798;23;19916;-93
2022/06/28 04:11:27;;;;;;;;;;;20.20;66.70;;;;;;6164834;23;19908;-93
2022/06/28 04:13:53;;;;;;;;;;;20.50;66.90;;;;;;6166314;23;20284;-92
2022/06/28 04:16:20;;;;;;;;;;;20.80;66.80;;;;;;6192232;23;19939;-93
2022/06/28 04:18:45;;;;;;;;;;;21.10;66.90;;;;;;6164796;23;19912;-94
2022/06/28 04:21:11;;;;;;;;;;;21.40;67.10;;;;;;6164869;23;19919;-92
2022/06/28 04:23:37;;;;;;;;;;;21.70;67.10;;;;;;6164329;23;19987;-93
2022/06/28 04:26:03;;;;;;;;;;;22.00;67.10;;;;;;6190853;23;19920;-93
2022/06/28 04:28:29;;;;;;;;;;;22.40;67.10;;;;;;6165265;23;19931;-92
2022/06/28 04:30:55;;;;;;;;;;;22.70;67.30;;;;;;6188189;23;20332;-95
2022/06/28 04:33:20;;;;;;;;;;;23.00;67.00;;;;;;6164109;23;19937;-93
2022/06/28 04:35:45;;;;;;;;;;;23.30;66.60;;;;;;6164630;23;19943;-92
2022/06/28 04:38:11;;;;;;;;;;;23.60;66.60;;;;;;6163173;23;19935;-93
2022/06/28 04:40:36;;;;;;;;;;;23.80;66.30;;;;;;6192079;23;19916;-93
2022/06/28 04:43:06;;;;;;;;;;;24.10;66.20;;;;;;6140780;23;19990;-93
2022/06/28 04:45:31;;;;;;;;;;;24.40;65.40;;;;;;6165049;23;19912;-95
2022/06/28 04:47:57;;;;;;;;;;;24.60;65.00;;;;;;6189024;23;20008;-96
2022/06/28 04:50:22;;;;;;;;;;;24.90;65.10;;;;;;6139581;23;20321;-94
2022/06/28 04:52:49;;;;;;;;;;;25.10;64.70;;;;;;6164786;23;19904;-94
2022/06/28 04:55:15;;;;;;;;;;;25.40;64.90;;;;;;6165292;23;19916;-94
2022/06/28 04:57:40;;;;;;;;;;;25.80;65.00;;;;;;6191942;23;19960;-95
2022/06/28 05:00:06;;;;;;;;;;;26.10;64.80;;;;;;6165135;23;19916;-92
2022/06/28 05:02:37;;;;;;;;;;;26.30;64.60;;;;;;6140151;23;20348;-95
2022/06/28 05:05:03;;;;;;;;;;;26.70;65.10;;;;;;6140183;23;19920;-93
2022/06/28 05:07:29;;;;;;;;;;;27.10;66.00;;;;;;6191861;23;20209;-94
2022/06/28 05:09:54;;;;;;;;;;;27.40;66.50;;;;;;6165890;23;19964;-94
2022/06/28 05:12:20;;;;;;;;;;;27.90;67.20;;;;;;6166455;23;19911;-95
2022/06/28 05:14:45;;;;;;;;;;;28.30;67.30;;;;;;6165751;23;19926;-93
2022/06/28 05:17:11;;;;;;;;;;;28.70;67.20;;;;;;6167072;23;20178;-90
2022/06/28 05:19:36;;;;;;;;;;;29.20;66.10;;;;;;6167275;23;20496;-95
2022/06/28 05:22:03;;;;;;;;;;;29.60;66.30;;;;;;6169133;23;20001;-94
2022/06/28 05:24:29;;;;;;;;;;;30.00;65.90;;;;;;6168919;23;19908;-95
2022/06/28 05:26:57;;;;;;;;;;;30.40;65.50;;;;;;6168892;23;19915;-93
2022/06/28 05:29:23;;;;;;;;;;;30.80;65.20;;;;;;6168557;23;19912;-95
2022/06/28 05:31:48;;;;;;;;;;;31.20;63.80;;;;;;6169581;23;20309;-95
2022/06/28 05:34:14;;;;;;;;;;;31.60;63.90;;;;;;6167975;23;20484;-95
2022/06/28 05:36:44;;;;;;;;;;;32.00;63.30;;;;;;6168551;23;19920;-95
2022/06/28 05:39:09;;;;;;;;;;;32.30;62.70;;;;;;6170904;23;19912;-95
2022/06/28 05:41:35;;;;;;;;;;;32.60;60.80;;;;;;6168462;23;19908;-96
2022/06/28 05:44:01;;;;;;;;;;;32.90;59.40;;;;;;6166894;23;19913;-96
2022/06/28 05:46:29;;;;;;;;;;;33.20;59.50;;;;;;6167675;23;19944;-94
2022/06/28 05:48:55;;;;;;;;;;;33.50;59.20;;;;;;6169037;23;19908;-95
2022/06/28 05:51:20;;;;;;;;;;;33.80;57.50;;;;;;6167737;23;19914;-96
2022/06/28 05:53:46;;;;;;;;;;;34.00;56.30;;;;;;6168939;23;19909;-95
2022/06/28 05:56:11;;;;;;;;;;;34.30;56.10;;;;;;6168444;23;20365;-96
2022/06/28 05:58:37;;;;;;;;;;;34.40;55.10;;;;;;6170612;23;19916;-96
2022/06/28 06:01:03;;;;;;;;;;;34.60;52.80;;;;;;6144740;23;19908;-96
2022/06/28 06:03:28;;;;;;;;;;;34.80;51.90;;;;;;6166109;23;19908;-95
2022/06/28 06:05:54;;;;;;;;;;;35.00;52.90;;;;;;6167317;23;19908;-95
2022/06/28 06:08:20;;;;;;;;;;;35.30;52.00;;;;;;6166996;23;19928;-96
2022/06/28 06:10:46;;;;;;;;;;;35.50;50.60;;;;;;6165459;23;19912;-95
2022/06/28 06:13:11;;;;;;;;;;;35.80;48.70;;;;;;6164787;23;19909;-95
2022/06/28 06:15:37;;;;;;;;;;;36.10;48.20;;;;;;6165660;23;19995;-95
2022/06/28 06:18:05;;;;;;;;;;;36.30;45.10;;;;;;6165422;23;19912;-96
2022/06/28 06:20:30;;;;;;;;;;;36.60;44.50;;;;;;6167904;23;19991;-96
2022/06/28 06:22:56;;;;;;;;;;;36.80;43.10;;;;;;6164481;23;19911;-93
2022/06/28 06:25:21;;;;;;;;;;;37.20;41.70;;;;;;6138260;23;20333;-94
2022/06/28 06:27:47;;;;;;;;;;;37.40;41.10;;;;;;6163416;23;19904;-94
2022/06/28 06:30:13;;;;;;;;;;;37.70;39.70;;;;;;6163355;23;19912;-95
2022/06/28 06:32:38;;;;;;;;;;;38.00;39.50;;;;;;6187976;23;19959;-95
2022/06/28 06:35:04;;;;;;;;;;;38.30;37.70;;;;;;6164407;23;19921;-95
2022/06/28 06:37:30;;;;;;;;;;;38.70;37.50;;;;;;6163798;23;19904;-94
2022/06/28 06:39:55;;;;;;;;;;;38.90;36.10;;;;;;6163344;23;19920;-94
2022/06/28 06:42:21;;;;;;;;;;;39.20;35.10;;;;;;6163577;23;19954;-94
2022/06/28 06:44:55;;;;;;;;;;;39.30;34.00;;;;;;6164525;23;19991;-95
2022/06/28 06:47:21;;;;;;;;;;;39.60;33.00;;;;;;6164160;23;19912;-94
2022/06/28 06:49:46;;;;;;;;;;;39.80;31.60;;;;;;6163230;23;19919;-93
2022/06/28 06:52:12;;;;;;;;;;;39.90;29.80;;;;;;6164546;23;19911;-93
2022/06/28 06:54:38;;;;;;;;;;;40.10;28.70;;;;;;6163063;23;19925;-95
2022/06/28 06:57:03;;;;;;;;;;;40.20;26.70;;;;;;6163125;23;20309;-94
2022/06/28 06:59:29;;;;;;;;;;;40.00;25.10;;;;;;6162152;23;19912;-94
2022/06/28 07:01:55;;;;;;;;;;;40.00;25.80;;;;;;6163811;23;19944;-94
2022/06/28 07:04:21;;;;;;;;;;;40.10;24.80;;;;;;6162714;23;19916;-94
2022/06/28 07:06:47;;;;;;;;;;;40.10;25.00;;;;;;6164121;23;19984;-95
2022/06/28 07:09:13;;;;;;;;;;;40.20;25.50;;;;;;6164776;23;19908;-94
2022/06/28 07:11:39;;;;;;;;;;;40.40;24.90;;;;;;6129008;23;19956;-95
2022/06/28 07:14:05;;;;;;;;;;;40.50;24.80;;;;;;6107328;23;19917;-96
2022/06/28 07:16:31;;;;;;;;;;;40.60;23.50;;;;;;6130725;23;19921;-96
2022/06/28 07:19:02;;;;;;;;;;;40.70;24.00;;;;;;6129966;23;19985;-95
2022/06/28 07:21:30;;;;;;;;;;;41.00;24.30;;;;;;6129842;23;20021;-95
2022/06/28 07:23:56;;;;;;;;;;;41.30;23.90;;;;;;6128142;23;20103;-96
2022/06/28 07:26:28;;;;;;;;;;;41.50;23.80;;;;;;6104038;23;19905;-95
2022/06/28 07:28:56;;;;;;;;;;;41.60;22.50;;;;;;6104789;23;20007;-94
2022/06/28 07:31:22;;;;;;;;;;;41.70;22.70;;;;;;6105737;23;20262;-94
2022/06/28 07:33:47;;;;;;;;;;;41.80;22.60;;;;;;6130133;23;19937;-94
2022/06/28 07:36:15;;;;;;;;;;;42.00;22.80;;;;;;6105018;23;19917;-95
2022/06/28 07:38:44;;;;;;;;;;;42.30;23.00;;;;;;6105761;23;19909;-96
2022/06/28 07:41:09;;;;;;;;;;;42.70;22.30;;;;;;6130757;23;19909;-94
2022/06/28 07:43:35;;;;;;;;;;;42.80;21.60;;;;;;6129779;23;20309;-95
2022/06/28 07:46:01;;;;;;;;;;;43.00;20.40;;;;;;6128854;23;19908;-94
2022/06/28 07:48:30;;;;;;;;;;;43.00;19.60;;;;;;6141698;23;19988;-96
2022/06/28 07:53:39;;;;;;;;;;;43.10;19.70;;;;;;6191820;23;19991;-95
2022/06/28 07:56:11;;;;;;;;;;;43.20;19.60;;;;;;6141124;23;19924;-95
2022/06/28 07:58:49;;;;;;;;;;;43.40;19.30;;;;;;6167201;23;19967;-95
2022/06/28 08:01:24;;;;;;;;;;;43.50;19.40;;;;;;6164940;23;19940;-96
2022/06/28 08:03:57;;;;;;;;;;;43.80;19.40;;;;;;6163672;23;19994;-95
2022/06/28 08:06:26;;;;;;;;;;;43.80;19.30;;;;;;6165384;23;20340;-93
2022/06/28 08:08:53;;;;;;;;;;;44.00;19.10;;;;;;6192982;23;19959;-96
2022/06/28 08:11:19;;;;;;;;;;;44.10;18.40;;;;;;6166665;23;19908;-95
2022/06/28 08:13:47;;;;;;;;;;;44.00;18.20;;;;;;6165873;23;19913;-96
2022/06/28 08:16:13;;;;;;;;;;;44.00;18.70;;;;;;6165307;23;19998;-95
2022/06/28 08:18:39;;;;;;;;;;;44.10;18.90;;;;;;6176358;23;19939;-96
2022/06/28 08:21:10;;;;;;;;;;;44.10;18.10;;;;;;6174703;23;19912;-96
2022/06/28 08:23:45;;;;;;;;;;;44.20;18.20;;;;;;6175180;23;19917;-96
2022/06/28 08:39:11;;;;;;;;;;;43.90;17.20;;;;;;6210501;22;20152;-94
2022/06/28 08:41:38;;;;;;;;;;;43.80;17.60;;;;;;6238111;22;19969;-96
2022/06/28 08:44:19;;;;;;;;;;;43.90;17.80;;;;;;6233591;22;19911;-96
2022/06/28 08:46:55;;;;;;;;;;;44.20;18.00;;;;;;6263078;22;19903;-96
2022/06/28 08:52:07;;;;;;;;;;;44.60;17.90;;;;;;6292179;22;19969;-96
2022/06/28 08:57:55;;;;;;;;;;;;;;;;;;;;;
2022/06/28 09:00:55;;;;;;;;;;;;;;;;;;;;;
2022/06/28 09:03:21;;;;;;;;;;;45.20;17.90;;;;;;6283696;22;20017;-94
2022/06/28 09:05:47;;;;;;;;;;;45.20;17.10;;;;;;6291558;22;19903;-96
2022/06/28 09:08:17;;;;;;;;;;;45.10;16.90;;;;;;6288348;22;19907;-95
2022/06/28 09:10:52;;;;;;;;;;;45.20;17.20;;;;;;6258898;22;20002;-96
2022/06/28 09:13:19;;;;;;;;;;;45.30;17.40;;;;;;6266222;22;19908;-96
2022/06/28 09:15:54;;;;;;;;;;;45.60;17.40;;;;;;6261110;22;19915;-95
2022/06/28 09:18:23;;;;;;;;;;;45.70;17.40;;;;;;6290018;22;19911;-96
2022/06/28 09:21:01;;;;;;;;;;;45.80;17.00;;;;;;6266201;22;19965;-96
2022/06/28 10:26:05;;;;;;;;;;;46.90;14.80;;;;;;6238997;22;19943;-96
2022/06/28 10:29:08;;;;;;;;;;;46.90;14.50;;;;;;6235105;23;19912;-96
2022/06/28 10:31:43;;;;;;;;;;;46.30;14.80;;;;;;6210231;23;19898;-96
2022/06/28 11:02:40;;;;;;;;;;;49.90;12.90;;;;;;6226765;22;19924;-95
2022/06/28 11:05:09;;;;;;;;;;;49.90;12.90;;;;;;6226008;23;20348;-96
2022/06/28 11:07:48;;;;;;;;;;;49.90;13.10;;;;;;6208620;23;19908;-96
2022/06/28 11:10:18;;;;;;;;;;;49.80;13.20;;;;;;6211844;23;19916;-96
2022/06/28 11:13:22;;;;;;;;;;;50.00;13.20;;;;;;6176961;23;19901;-96
2022/06/28 11:28:36;;;;;;;;;;;50.20;12.90;;;;;;6146445;23;19909;-96
2022/06/28 11:31:02;;;;;;;;;;;49.50;12.90;;;;;;6119243;23;19897;-96
2022/06/28 11:33:34;;;;;;;;;;;48.30;12.80;;;;;;6110832;23;19949;-96
2022/06/28 11:36:07;;;;;;;;;;;48.30;13.10;;;;;;6149565;23;19975;-96
2022/06/28 11:38:33;;;;;;;;;;;48.50;13.10;;;;;;6202569;23;19915;-96
2022/06/28 11:43:25;;;;;;;;;;;48.00;13.30;;;;;;6244745;23;19959;-96
2022/06/28 11:45:52;;;;;;;;;;;48.20;13.50;;;;;;6285572;22;20330;-96
2022/06/28 11:52:02;;;;;;;;;;;49.00;13.30;;;;;;6249195;23;19907;-96
2022/06/28 11:57:45;;;;;;;;;;;47.80;13.10;;;;;;6258653;23;19938;-96
2022/06/28 12:00:13;;;;;;;;;;;46.80;13.30;;;;;;6221798;23;19915;-96
2022/06/28 12:02:55;;;;;;;;;;;46.80;13.70;;;;;;6258042;23;19931;-96
2022/06/28 12:05:40;;;;;;;;;;;47.00;13.60;;;;;;6237112;23;19931;-96
2022/06/28 12:08:29;;;;;;;;;;;47.40;13.20;;;;;;6239359;23;19935;-96
2022/06/28 12:11:02;;;;;;;;;;;47.50;13.30;;;;;;6172310;23;20222;-96
2022/06/28 12:13:33;;;;;;;;;;;46.50;13.40;;;;;;6255484;22;19938;-96
2022/06/28 12:15:58;;;;;;;;;;;45.50;13.80;;;;;;6239425;23;19915;-96
2022/06/28 12:18:27;;;;;;;;;;;44.50;14.30;;;;;;6289225;22;19907;-96
2022/06/28 12:20:55;;;;;;;;;;;43.80;14.60;;;;;;6292861;22;19903;-96
2022/06/28 12:23:23;;;;;;;;;;;43.30;14.90;;;;;;6217068;23;19902;-96
2022/06/28 12:29:16;;;;;;;;;;;43.20;14.80;;;;;;6272000;22;19906;-96
2022/06/28 12:31:44;;;;;;;;;;;42.30;15.30;;;;;;6244830;22;19926;-95
2022/06/28 12:34:10;;;;;;;;;;;42.00;15.70;;;;;;6260350;22;19912;-96
2022/06/28 12:36:36;;;;;;;;;;;42.60;15.50;;;;;;6234508;23;19942;-96
2022/06/28 12:39:10;;;;;;;;;;;43.40;15.50;;;;;;6284419;22;19911;-93
2022/06/28 12:41:36;;;;;;;;;;;44.20;15.10;;;;;;6258389;23;19938;-96
2022/06/28 12:44:03;;;;;;;;;;;44.80;15.00;;;;;;6282582;22;19907;-96
2022/06/28 12:46:29;;;;;;;;;;;45.40;14.50;;;;;;6280495;22;19908;-95
2022/06/28 12:48:54;;;;;;;;;;;45.50;14.10;;;;;;6208448;23;19919;-96
2022/06/28 12:51:20;;;;;;;;;;;45.70;14.30;;;;;;6282835;22;19914;-96
2022/06/28 12:53:46;;;;;;;;;;;46.00;14.30;;;;;;6285869;22;19912;-96
2022/06/28 12:56:16;;;;;;;;;;;46.30;14.10;;;;;;6207840;23;20283;-96
2022/06/28 12:58:45;;;;;;;;;;;46.50;13.90;;;;;;6278683;22;19911;-93
2022/06/28 13:01:11;;;;;;;;;;;46.30;13.80;;;;;;6227937;23;19908;-95
2022/06/28 13:04:00;;;;;;;;;;;45.70;14.00;;;;;;6230440;23;19907;-94
2022/06/28 13:06:28;;;;;;;;;;;44.50;14.20;;;;;;6183421;23;19930;-96
2022/06/28 13:08:57;;;;;;;;;;;43.20;14.50;;;;;;6277311;22;19938;-95
2022/06/28 13:11:23;;;;;;;;;;;42.20;14.80;;;;;;6278173;22;19908;-93
2022/06/28 13:13:49;;;;;;;;;;;41.70;14.90;;;;;;6276487;22;19912;-94
2022/06/28 13:16:15;;;;;;;;;;;41.80;15.30;;;;;;6224100;23;19919;-94
2022/06/28 13:18:41;;;;;;;;;;;41.90;15.30;;;;;;6222374;23;19934;-95
2022/06/28 13:21:07;;;;;;;;;;;42.00;15.30;;;;;;6222465;23;19939;-94
2022/06/28 13:23:32;;;;;;;;;;;42.30;15.30;;;;;;6249740;23;20236;-94
2022/06/28 13:25:58;;;;;;;;;;;42.60;15.10;;;;;;6274401;22;19951;-95
2022/06/28 13:28:47;;;;;;;;;;;42.80;15.10;;;;;;6272609;22;20637;-93
2022/06/28 13:31:20;;;;;;;;;;;42.40;15.20;;;;;;6212439;23;20320;-92
2022/06/28 13:33:55;;;;;;;;;;;41.60;15.80;;;;;;6273325;22;19994;-93
2022/06/28 13:36:22;;;;;;;;;;;41.20;16.00;;;;;;6250130;23;19922;-92
2022/06/28 13:38:47;;;;;;;;;;;40.50;16.20;;;;;;6248812;23;20239;-92
2022/06/28 13:41:18;;;;;;;;;;;39.80;16.40;;;;;;6279713;22;19939;-95
2022/06/28 13:43:45;;;;;;;;;;;39.10;16.80;;;;;;6278650;22;19958;-95
2022/06/28 13:46:12;;;;;;;;;;;39.30;17.10;;;;;;6257483;22;19919;-95
2022/06/28 13:48:39;;;;;;;;;;;39.90;16.90;;;;;;6258732;22;20312;-94
2022/06/28 13:51:10;;;;;;;;;;;40.40;16.60;;;;;;6258867;22;19911;-95
2022/06/28 13:53:35;;;;;;;;;;;40.60;16.30;;;;;;6260448;22;19919;-96
2022/06/28 13:56:05;;;;;;;;;;;40.20;16.70;;;;;;6260198;22;19915;-95
2022/06/28 13:58:31;;;;;;;;;;;39.60;17.00;;;;;;6257868;22;19914;-95
2022/06/28 14:01:02;;;;;;;;;;;39.60;16.80;;;;;;6261294;22;20720;-96
2022/06/28 14:03:30;;;;;;;;;;;39.70;16.70;;;;;;6257654;22;19915;-94
2022/06/28 14:05:56;;;;;;;;;;;40.20;16.40;;;;;;6283401;22;19929;-94
2022/06/28 14:08:22;;;;;;;;;;;40.70;16.00;;;;;;6254011;22;19912;-94
2022/06/28 14:10:48;;;;;;;;;;;41.00;16.00;;;;;;6282806;22;19912;-95
2022/06/28 14:13:14;;;;;;;;;;;41.50;15.80;;;;;;6256603;22;19950;-94
2022/06/28 14:15:39;;;;;;;;;;;41.60;15.70;;;;;;6256917;22;19919;-94
2022/06/28 14:18:09;;;;;;;;;;;40.90;16.20;;;;;;6287427;22;19913;-94
2022/06/28 14:20:35;;;;;;;;;;;40.00;16.80;;;;;;6258236;22;19942;-95
2022/06/28 14:23:00;;;;;;;;;;;39.20;17.10;;;;;;6285366;22;20278;-92
2022/06/28 14:25:29;;;;;;;;;;;38.50;17.70;;;;;;6284856;22;19910;-93
2022/06/28 14:27:54;;;;;;;;;;;37.90;17.90;;;;;;6285002;22;19922;-94
2022/06/28 14:30:20;;;;;;;;;;;37.80;18.20;;;;;;6285513;22;19919;-94
2022/06/28 14:32:56;;;;;;;;;;;37.70;18.10;;;;;;6259494;22;19918;-93
2022/06/28 14:35:21;;;;;;;;;;;37.20;18.20;;;;;;6282623;22;19919;-93
2022/06/28 14:37:47;;;;;;;;;;;36.50;18.70;;;;;;6281095;22;20365;-91
2022/06/28 14:40:12;;;;;;;;;;;36.00;19.10;;;;;;6281294;22;19992;-94
2022/06/28 14:42:46;;;;;;;;;;;35.60;19.60;;;;;;6283293;22;19921;-95
2022/06/28 14:45:12;;;;;;;;;;;35.30;20.00;;;;;;6283953;22;19942;-94
2022/06/28 14:47:42;;;;;;;;;;;35.10;20.00;;;;;;6282440;22;19929;-93
2022/06/28 14:50:08;;;;;;;;;;;34.80;20.20;;;;;;6282700;22;19903;-93
2022/06/28 14:52:35;;;;;;;;;;;34.70;20.50;;;;;;6284820;22;20383;-94
2022/06/28 14:55:00;;;;;;;;;;;34.60;20.70;;;;;;6284375;22;19939;-94
2022/06/28 14:57:30;;;;;;;;;;;34.50;20.90;;;;;;6312578;22;19911;-95
2022/06/28 14:59:56;;;;;;;;;;;34.40;21.10;;;;;;6311923;22;19903;-94
2022/06/28 15:02:21;;;;;;;;;;;34.30;21.10;;;;;;6283048;22;20302;-93
2022/06/28 15:04:47;;;;;;;;;;;34.20;21.20;;;;;;6283957;22;19919;-94
2022/06/28 15:07:12;;;;;;;;;;;33.90;21.30;;;;;;6283763;22;19907;-94
2022/06/28 15:09:38;;;;;;;;;;;33.80;21.40;;;;;;6282145;22;19911;-94
2022/06/28 15:12:04;;;;;;;;;;;33.80;21.70;;;;;;6285210;22;19945;-95
2022/06/28 15:14:33;;;;;;;;;;;33.80;21.80;;;;;;6285015;22;19983;-95
2022/06/28 15:16:59;;;;;;;;;;;33.80;21.80;;;;;;6286929;22;20004;-94
2022/06/28 15:19:24;;;;;;;;;;;33.70;21.80;;;;;;6259095;22;19915;-95
2022/06/28 15:32:49;;;;;;;;;;;33.20;22.40;;;;;;6314436;22;19914;-92
2022/06/28 15:35:14;;;;;;;;;;;33.00;22.50;;;;;;6285909;22;19915;-93
2022/06/28 15:37:40;;;;;;;;;;;32.80;22.60;;;;;;6259798;22;19911;-94
2022/06/28 15:40:06;;;;;;;;;;;32.60;22.70;;;;;;6290021;22;19938;-94
2022/06/28 15:42:34;;;;;;;;;;;32.50;23.00;;;;;;6289165;22;19918;-95
2022/06/28 15:45:02;;;;;;;;;;;32.30;23.10;;;;;;6314443;22;20648;-95
2022/06/28 15:47:29;;;;;;;;;;;32.30;23.30;;;;;;6290482;22;19996;-94
2022/06/28 15:49:54;;;;;;;;;;;32.20;23.40;;;;;;6292215;22;19948;-95
2022/06/28 15:52:20;;;;;;;;;;;32.20;23.60;;;;;;6287430;22;19931;-95
2022/06/28 15:54:46;;;;;;;;;;;32.10;23.80;;;;;;6287720;22;20337;-95
2022/06/28 15:57:12;;;;;;;;;;;32.00;23.90;;;;;;6260749;22;19990;-94
2022/06/28 15:59:37;;;;;;;;;;;31.90;24.10;;;;;;6288028;22;20377;-95
2022/06/28 16:02:03;;;;;;;;;;;31.80;24.10;;;;;;6285334;22;19933;-94
2022/06/28 16:04:32;;;;;;;;;;;31.80;24.30;;;;;;6312934;22;19918;-95
2022/06/28 16:07:01;;;;;;;;;;;31.70;24.50;;;;;;6314809;22;20325;-94
2022/06/28 16:09:27;;;;;;;;;;;31.60;24.60;;;;;;6287492;22;20323;-94
2022/06/28 16:14:37;;;;;;;;;;;31.30;24.70;;;;;;6313688;22;20261;-93
2022/06/28 16:17:02;;;;;;;;;;;31.30;24.90;;;;;;6286749;22;19907;-94
2022/06/28 16:19:29;;;;;;;;;;;31.30;25.20;;;;;;6288278;22;19911;-93
2022/06/28 16:21:55;;;;;;;;;;;31.20;25.10;;;;;;6286907;22;19907;-94
2022/06/28 16:24:21;;;;;;;;;;;31.10;25.00;;;;;;6286966;22;19913;-96
2022/06/28 16:26:46;;;;;;;;;;;31.00;24.80;;;;;;6285956;22;20445;-95
2022/06/28 16:29:13;;;;;;;;;;;30.90;25.00;;;;;;6285668;22;19930;-94
2022/06/28 16:31:39;;;;;;;;;;;30.80;25.00;;;;;;6284920;22;19911;-92
2022/06/28 16:34:04;;;;;;;;;;;30.70;24.90;;;;;;6284967;22;19933;-94
2022/06/28 16:36:31;;;;;;;;;;;30.70;25.00;;;;;;6314640;22;19926;-94
2022/06/28 16:38:57;;;;;;;;;;;30.70;25.00;;;;;;6287244;22;20328;-93
2022/06/28 16:41:23;;;;;;;;;;;30.60;25.00;;;;;;6313513;22;19915;-95
2022/06/28 16:43:48;;;;;;;;;;;30.60;25.00;;;;;;6286811;22;19910;-93
2022/06/28 16:46:14;;;;;;;;;;;30.60;25.10;;;;;;6286802;22;19911;-93
2022/06/28 16:48:39;;;;;;;;;;;30.50;25.00;;;;;;6287805;22;19918;-95
2022/06/28 16:51:05;;;;;;;;;;;30.50;25.00;;;;;;6287508;22;19989;-93
2022/06/28 16:53:32;;;;;;;;;;;30.40;25.00;;;;;;6287430;22;19907;-93
2022/06/28 16:55:58;;;;;;;;;;;30.40;25.10;;;;;;6313838;22;20017;-94
2022/06/28 16:58:24;;;;;;;;;;;30.40;25.10;;;;;;6287317;22;19910;-94